Latest Coastal Weather Observations for St Lawrence

IDQ60701

Issued at 8:32 pm EST Friday 22 November 2019 (issued every 10 minutes, with the page automatically refreshed every 10 minutes)

About coastal observations | Map of coastal stations | Coastal observations for QLD | Marine services | Other Formats
Station Details ID: 033210 Name: ST LAWRENCE Lat: -22.35 Lon: 149.52 Height: 9.19 m
Data from the previous 72 hours. | See also: Recent months at St Lawrence
Date/Time
EST
Wind Sea
Height
m
Swell Vis
km
Cloud Weather Temp
°C
Press
hPa
Rain since
9am
mm
Dir  Spd
kts
Gust
kts
Height
m
Period
s
Dir
22/08:30pm NE 7 10 - - - - - - - 24.8 1015.3 0.0
22/08:00pm NE 7 11 - - - - - - - 24.9 1015.2 0.0
22/07:30pm NE 10 13 - - - - - - - 25.3 1015.0 0.0
22/07:00pm NNE 9 13 - - - - - - - 25.7 1014.8 0.0
22/06:30pm NNE 9 13 - - - - - - - 25.6 1014.5 0.0
22/06:00pm NNE 11 16 - - - - - - - 26.2 1014.3 0.0
22/05:30pm NNE 12 16 - - - - - - - 26.7 1014.0 0.0
22/05:00pm NNE 13 17 - - - - - - - 27.3 1013.8 0.0
22/04:30pm NNE 13 17 - - - - - - - 28.0 1013.8 0.0
22/04:00pm NNE 13 17 - - - - - - - 28.2 1013.7 0.0
22/03:30pm NNE 12 16 - - - - - - - 28.8 1013.7 0.0
22/03:00pm NNE 12 17 - - - - - - - 29.1 1013.8 0.0
22/02:30pm NNE 12 16 - - - - - - - 29.6 1014.1 0.0
22/02:00pm NNE 11 16 - - - - - - - 29.4 1014.3 0.0
22/01:30pm NNE 13 19 - - - - - - - 29.9 1014.5 0.0
22/01:00pm NNE 11 19 - - - - - - - 30.4 1014.7 0.0
22/12:30pm NNE 11 16 - - - - - - - 30.2 1015.0 0.0
22/12:00pm NNE 14 19 - - - - - - - 30.3 1015.5 0.0
22/11:30am NNE 11 18 - - - - - - - 29.5 1015.9 0.0
22/11:00am NE 10 16 - - - - - - - 30.1 1016.2 0.0
22/10:30am ENE 9 14 - - - - - - - 30.0 1016.2 0.0
22/10:00am ENE 9 15 - - - - - - - 28.9 1016.6 0.0
22/09:30am ENE 11 17 - - - - - - - 28.4 1016.8 0.0
22/09:00am ENE 9 14 - - - - - - - 27.8 1017.1 0.0
22/08:30am E 7 12 - - - - - - - 27.0 1017.1 0.0
22/08:00am ESE 7 12 - - - - - - - 25.7 1017.2 0.0
22/07:30am SSE 6 8 - - - - - - - 24.9 1017.1 0.0
22/07:00am SSE 7 9 - - - - - - - 23.6 1016.8 0.0
22/06:30am SSE 6 8 - - - - - - - 22.2 1016.5 0.0
22/06:00am SSE 6 8 - - - - - - - 20.3 1016.4 0.0
22/05:30am SSE 7 9 - - - - - - - 19.9 1016.0 0.0
22/05:00am SSE 6 9 - - - - - - - 19.9 1015.6 0.0
22/04:30am SSE 6 8 - - - - - - - 19.6 1015.1 0.0
22/04:00am SSE 5 6 - - - - - - - 19.5 1014.8 0.0
22/03:30am SSE 5 6 - - - - - - - 19.9 1014.5 0.0
22/03:00am SSE 6 7 - - - - - - - 20.4 1014.5 0.0
22/02:30am SSE 5 6 - - - - - - - 20.8 1014.6 0.0
22/02:00am SSE 5 8 - - - - - - - 21.1 1014.7 0.0
22/01:30am SSE 5 7 - - - - - - - 20.9 1014.8 0.0
22/01:00am SSE 4 5 - - - - - - - 20.7 1015.0 0.0
22/12:30am SSE 4 5 - - - - - - - 21.3 1015.4 0.0
22/12:00am S 4 5 - - - - - - - 22.3 1015.9 0.0
 
Date/Time
EST
Wind Sea
Height
m
Swell Vis
km
Cloud Weather Temp
°C
Press
hPa
Rain since
9am
mm
Dir  Spd
kts
Gust
kts
Height
m
Period
s
Dir
21/11:30pm SE 4 6 - - - - - - - 23.3 1016.2 0.0
21/11:00pm SE 4 5 - - - - - - - 23.6 1016.5 0.0
21/10:30pm ESE 3 6 - - - - - - - 23.4 1016.5 0.0
21/10:00pm ESE 4 7 - - - - - - - 23.6 1016.5 0.0
21/09:30pm ENE 5 9 - - - - - - - 24.1 1016.1 0.0
21/09:00pm ENE 7 11 - - - - - - - 24.4 1015.6 0.0
21/08:30pm ENE 5 10 - - - - - - - 24.4 1015.3 0.0
21/08:00pm ENE 9 16 - - - - - - - 24.9 1015.2 0.0
21/07:30pm NE 7 13 - - - - - - - 25.1 1014.9 0.0
21/07:00pm NE 9 15 - - - - - - - 25.3 1014.7 0.0
21/06:30pm NE 10 16 - - - - - - - 25.6 1014.4 0.0
21/06:00pm NNE 13 18 - - - - - - - 26.1 1014.1 0.0
21/05:30pm NNE 13 17 - - - - - - - 26.6 1013.9 0.0
21/05:00pm NNE 13 17 - - - - - - - 27.1 1013.6 0.0
21/04:30pm NNE 14 20 - - - - - - - 27.5 1013.4 0.0
21/04:00pm NNE 14 18 - - - - - - - 27.9 1013.3 0.0
21/03:30pm NNE 14 18 - - - - - - - 28.6 1013.3 0.0
21/03:00pm NNE 14 20 - - - - - - - 28.8 1013.4 0.0
21/02:30pm NNE 14 22 - - - - - - - 28.8 1013.6 0.0
21/02:00pm NNE 14 19 - - - - - - - 29.3 1013.8 0.0
21/01:30pm NNE 14 20 - - - - - - - 29.9 1014.0 0.0
21/01:00pm NNE 14 20 - - - - - - - 29.7 1014.2 0.0
21/12:30pm NNE 13 17 - - - - - - - 29.5 1014.6 0.0
21/12:00pm NNE 13 19 - - - - - - - 29.1 1014.9 0.0
21/11:30am NNE 11 15 - - - - - - - 30.4 1015.2 0.0
21/11:00am NNE 11 17 - - - - - - - 29.5 1015.5 0.0
21/10:30am NNE 11 15 - - - - - - - 28.5 1015.7 0.0
21/10:00am NNE 9 13 - - - - - - - 28.4 1015.9 0.0
21/09:30am NNE 8 13 - - - - - - - 28.1 1016.0 0.0
21/09:00am NE 9 17 - - - - - - - 28.7 1016.1 0.0
21/08:30am NE 7 11 - - - - - - - 27.4 1016.2 0.0
21/08:00am NE 7 12 - - - - - - - 27.2 1016.1 0.0
21/07:30am NNE 7 9 - - - - - - - 26.4 1015.9 0.0
21/07:00am NE 5 9 - - - - - - - 26.3 1015.7 0.0
21/06:30am CALM 0 0 - - - - - - - 23.2 1015.4 0.0
21/06:00am CALM 0 0 - - - - - - - 21.6 1014.8 0.0
21/05:30am CALM 0 0 - - - - - - - 22.2 1014.2 0.0
21/05:00am CALM 0 0 - - - - - - - 21.9 1013.8 0.0
21/04:30am CALM 0 0 - - - - - - - 23.0 1013.4 0.0
21/04:00am NE 1 4 - - - - - - - 23.0 1013.0 0.0
21/03:30am CALM 0 0 - - - - - - - 23.4 1012.6 0.0
21/03:00am NNE 4 6 - - - - - - - 24.1 1012.3 0.0
21/02:30am NNE 5 6 - - - - - - - 24.2 1012.2 0.0
21/02:00am NNE 5 7 - - - - - - - 24.2 1012.1 0.0
21/01:30am NNE 6 8 - - - - - - - 24.5 1012.4 0.0
21/01:00am NNE 5 7 - - - - - - - 24.6 1012.7 0.0
21/12:30am NNE 6 9 - - - - - - - 24.8 1013.1 0.0
21/12:00am NNE 7 9 - - - - - - - 25.0 1013.4 0.0
 
Date/Time
EST
Wind Sea
Height
m
Swell Vis
km
Cloud Weather Temp
°C
Press
hPa
Rain since
9am
mm
Dir  Spd
kts
Gust
kts
Height
m
Period
s
Dir
20/11:30pm NNE 7 9 - - - - - - - 25.2 1013.7 0.0
20/11:00pm NNE 8 11 - - - - - - - 25.3 1013.8 0.0
20/10:30pm NNE 8 12 - - - - - - - 25.5 1013.9 0.0
20/10:00pm NNE 8 11 - - - - - - - 25.5 1013.8 0.0
20/09:30pm NNE 10 13 - - - - - - - 25.8 1013.6 0.0
20/09:00pm NNE 9 13 - - - - - - - 25.9 1013.3 0.0
20/08:30pm NNE 10 13 - - - - - - - 25.9 1013.0 0.0
20/08:00pm NNE 11 16 - - - - - - - 26.0 1012.8 0.0
20/07:30pm N 11 16 - - - - - - - 26.0 1012.6 0.0
20/07:00pm NNE 13 19 - - - - - - - 26.2 1012.2 0.0
20/06:30pm NNE 13 17 - - - - - - - 26.4 1011.9 0.0
20/06:00pm NNE 13 18 - - - - - - - 26.8 1011.5 0.0
20/05:30pm NNE 14 18 - - - - - - - 27.4 1011.0 0.0
20/05:00pm NNE 15 20 - - - - - - - 27.6 1010.6 0.0
20/04:30pm NNE 15 20 - - - - - - - 28.5 1010.0 0.0
20/04:00pm NNE 14 19 - - - - - - - 29.6 1009.7 0.0
20/03:30pm NNE 12 18 - - - - - - - 30.5 1009.7 0.0
20/03:00pm NNE 13 17 - - - - - - - 30.9 1009.9 0.0
20/02:30pm NNE 12 16 - - - - - - - 31.3 1010.2 0.0
20/02:00pm NNE 11 15 - - - - - - - 31.9 1010.4 0.0
20/01:30pm NNE 11 14 - - - - - - - 31.8 1010.6 0.0
20/01:00pm NNE 11 15 - - - - - - - 33.1 1011.1 0.0
20/12:30pm NE 9 15 - - - - - - - 31.5 1011.4 0.0
20/12:00pm N 8 12 - - - - - - - 31.2 1011.8 0.0
20/11:30am N 10 15 - - - - - - - 31.2 1012.0 0.0
20/11:00am N 9 14 - - - - - - - 30.2 1012.6 0.0
20/10:30am N 7 10 - - - - - - - 30.4 1013.0 0.0
20/10:00am N 8 13 - - - - - - - 29.4 1013.5 0.0
20/09:30am NNE 7 11 - - - - - - - 28.9 1013.8 0.0
20/09:00am NNE 8 12 - - - - - - - 28.8 1014.0 0.0
20/08:30am NNE 5 7 - - - - - - - 27.7 1014.1 0.0
20/08:00am NE 4 7 - - - - - - - 27.4 1014.1 0.0
20/07:30am NNW 5 8 - - - - - - - 26.4 1014.2 0.0
20/07:00am WNW 2 4 - - - - - - - 25.0 1014.0 0.0
20/06:30am CALM 0 0 - - - - - - - 24.3 1013.8 0.0
20/06:00am CALM 0 0 - - - - - - - 22.5 1013.4 0.0
20/05:30am CALM 0 0 - - - - - - - 21.2 1012.9 0.0
20/05:00am CALM 0 0 - - - - - - - 22.0 1012.6 0.0
20/04:30am CALM 0 0 - - - - - - - 22.6 1012.4 0.0
20/04:00am CALM 0 0 - - - - - - - 22.7 1012.0 0.0
20/03:30am CALM 0 0 - - - - - - - 23.0 1011.9 0.0
20/03:00am N 4 7 - - - - - - - 23.8 1011.8 0.0
20/02:30am N 5 7 - - - - - - - 24.4 1011.8 0.0
20/02:00am N 6 7 - - - - - - - 24.5 1012.0 0.0
20/01:30am N 7 10 - - - - - - - 24.7 1012.3 0.0
20/01:00am N 8 11 - - - - - - - 24.9 1012.5 0.0
20/12:30am N 7 11 - - - - - - - 24.9 1012.8 0.0
20/12:00am N 7 9 - - - - - - - 25.0 1013.1 0.0
 
Date/Time
EST
Wind Sea
Height
m
Swell Vis
km
Cloud Weather Temp
°C
Press
hPa
Rain since
9am
mm
Dir  Spd
kts
Gust
kts
Height
m
Period
s
Dir
19/11:30pm N 8 11 - - - - - - - 25.0 1013.3 0.0
19/11:00pm N 8 11 - - - - - - - 25.1 1013.7 0.0
19/10:30pm N 7 10 - - - - - - - 25.3 1013.8 0.0
19/10:00pm N 7 11 - - - - - - - 25.3 1014.0 0.0
19/09:30pm N 8 13 - - - - - - - 25.5 1013.6 0.0
19/09:00pm N 8 11 - - - - - - - 25.6 1013.4 0.0

Other formats

Comma delimited format used in spreadsheet applications
http://www.bom.gov.au/fwo/IDQ60701/IDQ60701.95369.axf

JavaScript Object Notation format (JSON) in row-major order
http://www.bom.gov.au/fwo/IDQ60701/IDQ60701.95369.json

Data quality

Most of these data are generated automatically and are frequently updated. Quality checks on data are not normally performed. It is possible for incorrect values to appear. Refer to information at About Latest Weather Observations and please check the disclaimer before using these data.